Time;durP1;ratioP1;P1;durP2;ratioP2;P2;SDS_P1;SDS_P2;PMS_P1;PMS_P2;Temp;Humidity;BMP_temperature;BMP_pressure;BME280_temperature;BME280_humidity;BME280_pressure;Samples;Min_cycle;Max_cycle;Signal;HPM_P1;HPM_P2
2022/09/07 00:02:33;;;;;;;5.00;4.50;;;;;;;23.33;45.21;95557.34;6274758;27;104512;-66
2022/09/07 00:05:42;;;;;;;5.53;4.80;;;;;;;23.35;45.04;95551.69;6277961;27;102772;-68
2022/09/07 00:08:45;;;;;;;5.03;4.70;;;;;;;23.35;44.88;95546.34;6274204;27;104725;-68
2022/09/07 00:11:48;;;;;;;5.10;4.80;;;;;;;23.40;44.94;95556.94;6274576;27;103296;-69
2022/09/07 00:14:53;;;;;;;4.77;4.33;;;;;;;23.40;44.66;95548.94;6268532;27;103764;-68
2022/09/07 00:17:56;;;;;;;4.83;4.43;;;;;;;23.39;44.52;95552.69;6274914;27;103179;-69
2022/09/07 00:21:00;;;;;;;4.50;4.20;;;;;;;23.24;44.17;95553.78;6269772;27;103166;-66
2022/09/07 00:24:03;;;;;;;4.20;3.90;;;;;;;22.86;45.26;95553.25;6274287;27;103079;-67
2022/09/07 00:27:06;;;;;;;4.37;4.00;;;;;;;22.84;44.99;95552.72;6279924;27;103088;-68
2022/09/07 00:30:12;;;;;;;5.07;4.57;;;;;;;23.03;44.68;95547.31;6279120;27;103231;-69
2022/09/07 00:33:15;;;;;;;3.83;3.53;;;;;;;22.83;44.76;95548.47;6262762;27;103841;-68
2022/09/07 00:36:19;;;;;;;5.23;4.83;;;;;;;22.98;44.32;95546.28;6279308;27;103242;-67
2022/09/07 00:39:23;;;;;;;6.53;4.03;;;;;;;23.14;44.33;95548.66;6272463;27;102976;-68
2022/09/07 00:42:26;;;;;;;4.60;3.60;;;;;;;23.07;44.53;95546.41;6276404;27;103263;-67
2022/09/07 00:45:30;;;;;;;4.33;3.90;;;;;;;23.06;44.59;95560.84;6266124;27;103586;-68
2022/09/07 00:48:38;;;;;;;3.87;3.57;;;;;;;23.14;44.38;95554.78;6279257;27;103054;-69
2022/09/07 00:51:48;;;;;;;4.00;3.70;;;;;;;23.26;43.80;95552.38;6279869;27;103551;-67
2022/09/07 00:54:58;;;;;;;3.77;3.47;;;;;;;23.21;44.10;95549.84;6259393;27;103237;-67
2022/09/07 00:58:02;;;;;;;5.03;3.70;;;;;;;23.12;44.23;95548.94;6262239;27;103168;-69
2022/09/07 01:01:08;;;;;;;4.40;4.00;;;;;;;23.20;43.87;95548.25;6279060;27;103106;-68
2022/09/07 01:04:11;;;;;;;4.10;3.80;;;;;;;23.24;43.89;95551.91;6272143;27;102980;-66
2022/09/07 01:07:15;;;;;;;3.80;3.50;;;;;;;23.26;43.32;95536.38;6271143;27;103318;-69
2022/09/07 01:10:18;;;;;;;3.30;3.10;;;;;;;23.26;43.59;95536.38;6283087;27;103210;-69
2022/09/07 01:13:21;;;;;;;3.27;3.07;;;;;;;23.20;43.60;95540.25;6277686;27;107288;-69
2022/09/07 01:16:38;;;;;;;3.30;3.00;;;;;;;23.26;43.70;95535.56;6283513;27;103222;-69
2022/09/07 01:20:23;;;;;;;3.60;3.40;;;;;;;23.20;43.31;95532.25;6276524;27;103381;-69
2022/09/07 01:23:58;;;;;;;3.70;3.50;;;;;;;23.20;42.86;95532.25;6264500;27;104140;-69
2022/09/07 01:27:39;;;;;;;4.00;3.70;;;;;;;23.27;43.11;95532.59;6282849;27;104574;-69
2022/09/07 01:30:51;;;;;;;4.30;4.00;;;;;;;23.32;42.87;95531.72;6258675;27;104046;-68
2022/09/07 01:34:03;;;;;;;3.83;3.23;;;;;;;23.25;43.20;95529.44;6272396;27;103927;-69
2022/09/07 01:37:15;;;;;;;3.80;3.50;;;;;;;23.16;43.04;95536.56;6274220;27;103042;-68
2022/09/07 01:40:29;;;;;;;3.50;3.20;;;;;;;23.21;42.80;95525.81;6274178;27;103725;-69
2022/09/07 01:43:40;;;;;;;4.10;3.80;;;;;;;23.22;42.97;95529.25;6275573;27;104794;-69
2022/09/07 01:46:49;;;;;;;3.60;3.30;;;;;;;23.10;42.93;95532.44;6279334;27;103296;-68
2022/09/07 01:49:58;;;;;;;5.53;3.50;;;;;;;23.11;42.61;95535.91;6284063;27;103672;-64
2022/09/07 01:53:09;;;;;;;3.70;3.30;;;;;;;23.20;42.47;95531.44;6266617;27;104026;-65
2022/09/07 01:56:15;;;;;;;3.20;3.00;;;;;;;23.13;42.96;95528.38;6283725;27;104083;-63
2022/09/07 01:59:27;;;;;;;3.50;3.20;;;;;;;23.18;42.43;95528.25;6282806;27;103350;-63
2022/09/07 02:02:36;;;;;;;3.50;3.20;;;;;;;23.07;42.98;95525.03;6273930;27;104067;-63
2022/09/07 02:05:46;;;;;;;3.50;3.20;;;;;;;23.12;42.93;95526.81;6267696;27;103108;-62
2022/09/07 02:08:53;;;;;;;3.60;3.30;;;;;;;23.13;42.63;95521.16;6287291;27;103211;-63
2022/09/07 02:11:57;;;;;;;2.87;2.67;;;;;;;23.16;42.30;95517.88;6286248;27;103637;-64
2022/09/07 02:15:05;;;;;;;3.27;3.07;;;;;;;23.20;42.52;95518.88;6270786;27;103421;-62
2022/09/07 02:18:10;;;;;;;3.57;3.27;;;;;;;23.19;42.89;95514.63;6286873;27;103162;-62
2022/09/07 02:21:17;;;;;;;3.30;2.97;;;;;;;23.17;42.88;95514.13;6286693;27;102851;-62
2022/09/07 02:24:25;;;;;;;4.30;3.50;;;;;;;23.19;42.57;95506.63;6280099;27;103125;-62
2022/09/07 02:27:33;;;;;;;3.40;3.10;;;;;;;23.21;42.68;95517.00;6277143;27;103271;-62
2022/09/07 02:30:38;;;;;;;5.10;3.50;;;;;;;23.18;42.64;95513.03;6285919;27;103045;-62
2022/09/07 02:33:42;;;;;;;3.40;3.20;;;;;;;23.20;42.63;95505.53;6279189;27;104077;-63
2022/09/07 02:36:47;;;;;;;3.03;2.73;;;;;;;23.14;42.39;95511.28;6279987;27;103172;-62
2022/09/07 02:39:51;;;;;;;3.10;2.90;;;;;;;23.15;42.04;95508.31;6285150;27;103912;-62
2022/09/07 02:42:54;;;;;;;2.97;2.70;;;;;;;23.16;42.31;95507.22;6281916;27;103809;-65
2022/09/07 02:46:18;;;;;;;4.10;3.03;;;;;;;23.13;42.44;95502.47;6283331;27;103121;-64
2022/09/07 02:49:38;;;;;;;4.03;3.67;;;;;;;22.97;42.03;95511.91;6276331;27;103545;-63
2022/09/07 02:52:52;;;;;;;3.87;3.40;;;;;;;22.91;42.41;95516.56;6282857;27;103080;-64
2022/09/07 02:56:07;;;;;;;4.40;3.40;;;;;;;22.92;42.25;95522.69;6284589;27;103360;-62
2022/09/07 02:59:22;;;;;;;3.20;3.00;;;;;;;22.78;42.59;95519.25;6282400;27;103126;-62
2022/09/07 03:02:31;;;;;;;3.60;3.30;;;;;;;22.68;42.44;95522.91;6276053;27;103335;-62
2022/09/07 03:05:42;;;;;;;4.00;3.70;;;;;;;22.91;42.51;95526.44;6280124;27;104050;-62
2022/09/07 03:08:50;;;;;;;6.37;4.00;;;;;;;23.03;42.26;95531.28;6287029;27;103249;-62
2022/09/07 03:11:54;;;;;;;6.77;6.17;;;;;;;23.08;42.16;95517.81;6276067;27;103282;-63
2022/09/07 03:14:57;;;;;;;11.70;10.80;;;;;;;23.15;41.94;95523.53;6279742;27;103175;-61
2022/09/07 03:18:02;;;;;;;14.53;13.30;;;;;;;23.16;41.71;95531.25;6285232;27;103460;-63
2022/09/07 03:21:05;;;;;;;18.17;16.60;;;;;;;23.14;41.79;95522.75;6285564;27;103254;-64
2022/09/07 03:24:08;;;;;;;10.23;9.30;;;;;;;23.08;41.75;95517.81;6261797;27;103689;-63
2022/09/07 03:27:11;;;;;;;6.47;5.97;;;;;;;22.95;41.90;95514.09;6283945;27;104012;-64
2022/09/07 03:30:15;;;;;;;8.13;4.20;;;;;;;22.74;41.23;95518.28;6286164;27;108003;-64
2022/09/07 03:33:19;;;;;;;4.80;4.40;;;;;;;22.79;41.41;95524.28;6272099;27;102816;-64
2022/09/07 03:36:22;;;;;;;4.37;3.97;;;;;;;22.87;41.30;95528.16;6270580;27;103380;-63
2022/09/07 03:39:27;;;;;;;4.13;3.80;;;;;;;22.65;41.45;95529.63;6285371;27;103408;-66
2022/09/07 03:42:30;;;;;;;5.33;3.23;;;;;;;22.61;41.53;95530.53;6281469;27;102890;-65
2022/09/07 03:45:33;;;;;;;4.80;3.37;;;;;;;22.63;41.55;95531.78;6271787;27;103182;-66
2022/09/07 03:48:38;;;;;;;3.70;2.90;;;;;;;22.42;41.10;95528.72;6284993;27;102998;-66
2022/09/07 03:51:41;;;;;;;3.93;3.10;;;;;;;22.36;42.12;95524.56;6286247;27;103127;-66
2022/09/07 03:54:45;;;;;;;4.07;3.00;;;;;;;22.48;42.63;95536.59;6277361;27;104114;-67
2022/09/07 03:57:48;;;;;;;3.00;2.70;;;;;;;22.40;42.54;95532.75;6270707;27;103292;-66
2022/09/07 04:00:51;;;;;;;2.93;2.60;;;;;;;22.47;42.69;95533.16;6285244;27;104716;-66
2022/09/07 04:04:01;;;;;;;2.73;2.33;;;;;;;22.34;42.48;95537.38;6279558;27;103204;-65
2022/09/07 04:07:05;;;;;;;4.83;2.73;;;;;;;22.51;43.03;95544.00;6274553;27;105769;-66
2022/09/07 04:10:09;;;;;;;4.07;3.77;;;;;;;22.41;43.23;95542.34;6278479;27;103148;-65
2022/09/07 04:13:12;;;;;;;5.80;3.60;;;;;;;22.67;43.55;95540.00;6277918;27;103303;-65
2022/09/07 04:16:18;;;;;;;9.33;3.70;;;;;;;22.87;43.07;95547.63;6283173;27;103118;-65
2022/09/07 04:19:22;;;;;;;5.00;3.40;;;;;;;22.95;42.30;95551.44;6272467;27;103294;-66
2022/09/07 04:22:26;;;;;;;7.93;4.80;;;;;;;22.98;43.20;95550.84;6281251;27;103544;-66
2022/09/07 04:25:29;;;;;;;5.17;4.67;;;;;;;22.93;42.90;95557.09;6283570;27;103139;-66
2022/09/07 04:28:32;;;;;;;9.00;8.10;;;;;;;22.90;42.72;95562.25;6287345;27;103202;-66
2022/09/07 04:31:36;;;;;;;6.57;5.97;;;;;;;22.79;42.23;95553.63;6276165;27;103563;-67
2022/09/07 04:34:40;;;;;;;8.03;6.40;;;;;;;22.66;43.01;95554.41;6280563;27;103208;-67
2022/09/07 04:37:44;;;;;;;6.23;5.63;;;;;;;22.74;42.89;95552.94;6285820;27;102817;-66
2022/09/07 04:40:47;;;;;;;9.70;8.80;;;;;;;22.68;42.80;95557.56;6283263;27;103038;-67
2022/09/07 04:43:54;;;;;;;10.97;9.93;;;;;;;22.70;43.00;95548.22;6269735;27;103350;-67
2022/09/07 04:46:57;;;;;;;34.37;30.93;;;;;;;22.64;43.81;95541.38;6284829;27;103460;-67
2022/09/07 04:50:02;;;;;;;29.27;26.17;;;;;;;22.65;43.41;95558.19;6284659;27;103810;-66
2022/09/07 04:53:05;;;;;;;39.30;35.60;;;;;;;22.76;43.10;95558.78;6265082;27;104678;-67
2022/09/07 04:56:08;;;;;;;26.30;23.93;;;;;;;22.82;43.57;95553.03;6284153;27;105789;-68
2022/09/07 04:59:16;;;;;;;18.43;16.53;;;;;;;22.88;43.49;95551.06;6286553;27;103244;-67
2022/09/07 05:02:19;;;;;;;15.03;13.63;;;;;;;22.87;43.21;95562.84;6282678;27;102734;-67
2022/09/07 05:05:24;;;;;;;11.80;10.70;;;;;;;22.76;43.23;95559.56;6273042;27;103965;-67
2022/09/07 05:08:27;;;;;;;14.97;13.53;;;;;;;22.58;43.42;95566.59;6286711;27;103079;-66
2022/09/07 05:11:31;;;;;;;9.17;8.37;;;;;;;22.51;42.83;95560.00;6286053;27;103078;-65
2022/09/07 05:14:34;;;;;;;10.77;7.80;;;;;;;22.54;42.84;95565.56;6280421;27;103315;-66
2022/09/07 05:17:37;;;;;;;8.00;7.20;;;;;;;22.55;42.90;95567.16;6276335;27;103743;-66
2022/09/07 05:20:42;;;;;;;9.53;8.63;;;;;;;22.49;42.79;95568.31;6286875;27;103169;-66
2022/09/07 05:23:45;;;;;;;7.93;7.13;;;;;;;22.46;42.44;95566.25;6279953;27;103258;-66
2022/09/07 05:26:48;;;;;;;7.77;7.07;;;;;;;22.11;43.20;95565.78;6281181;27;103151;-67
2022/09/07 05:29:51;;;;;;;7.77;6.50;;;;;;;22.16;43.50;95562.22;6281072;27;103546;-67
2022/09/07 05:33:01;;;;;;;7.03;5.90;;;;;;;22.38;42.41;95562.38;6281267;27;103700;-67
2022/09/07 05:36:07;;;;;;;5.40;4.90;;;;;;;22.42;42.85;95559.91;6276421;27;103030;-66
2022/09/07 05:39:10;;;;;;;6.80;6.20;;;;;;;22.54;43.20;95562.13;6250299;27;103504;-67
2022/09/07 05:42:14;;;;;;;5.97;5.43;;;;;;;22.62;43.50;95569.44;6259585;27;102950;-67
2022/09/07 05:45:17;;;;;;;7.97;6.20;;;;;;;22.46;44.12;95555.56;6283759;27;103374;-67
2022/09/07 05:48:20;;;;;;;6.67;5.90;;;;;;;22.76;44.14;95556.91;6287420;27;103212;-66
2022/09/07 05:51:24;;;;;;;7.40;6.60;;;;;;;22.68;44.20;95555.72;6275581;27;103302;-67
2022/09/07 05:54:27;;;;;;;7.80;6.27;;;;;;;22.81;43.64;95556.00;6279427;27;103216;-68
2022/09/07 05:57:31;;;;;;;7.27;6.57;;;;;;;22.96;43.16;95555.69;6285772;27;103169;-66
2022/09/07 06:00:34;;;;;;;7.07;6.37;;;;;;;23.09;43.35;95556.78;6282042;27;103345;-66
2022/09/07 06:03:39;;;;;;;8.20;5.63;;;;;;;23.13;43.38;95557.75;6274089;27;103289;-66
2022/09/07 06:06:43;;;;;;;5.53;4.93;;;;;;;22.98;43.62;95559.66;6285782;27;103240;-67
2022/09/07 06:10:08;;;;;;;4.87;3.60;;;;;;;22.84;43.13;95556.19;6286932;27;103173;-67
2022/09/07 06:13:31;;;;;;;4.63;2.97;;;;;;;22.97;43.02;95568.75;6272812;27;103707;-68
2022/09/07 06:16:35;;;;;;;3.87;3.57;;;;;;;23.01;43.17;95568.94;6271661;27;103148;-67
2022/09/07 06:19:38;;;;;;;3.70;3.33;;;;;;;23.21;42.71;95560.50;6285881;27;103110;-65
2022/09/07 06:22:42;;;;;;;4.27;3.97;;;;;;;23.41;43.93;95547.84;6285001;27;103184;-67
2022/09/07 06:25:49;;;;;;;5.43;4.00;;;;;;;23.58;42.69;95562.13;6271454;27;105110;-63
2022/09/07 06:28:52;;;;;;;10.37;4.80;;;;;;;23.70;42.67;95558.91;6285920;27;103279;-65
2022/09/07 06:32:00;;;;;;;8.30;6.10;;;;;;;23.73;42.91;95558.31;6285100;27;103111;-68
2022/09/07 06:35:23;;;;;;;4.90;4.40;;;;;;;23.60;42.69;95565.28;6272580;27;102975;-67
2022/09/07 06:38:30;;;;;;;4.00;3.67;;;;;;;23.66;42.40;95567.81;6285668;27;103042;-67
2022/09/07 06:41:34;;;;;;;5.00;3.53;;;;;;;23.76;41.95;95571.06;6286256;27;102939;-67
2022/09/07 06:44:57;;;;;;;4.70;3.53;;;;;;;23.83;42.06;95573.28;6280760;27;103242;-67
2022/09/07 06:48:00;;;;;;;5.20;3.87;;;;;;;23.81;41.74;95565.59;6274234;27;104183;-67
2022/09/07 06:51:06;;;;;;;8.50;3.87;;;;;;;23.94;41.94;95566.63;6285313;27;104068;-69
2022/09/07 06:54:11;;;;;;;3.80;3.50;;;;;;;23.89;41.27;95556.84;6283813;27;104268;-67
2022/09/07 06:57:34;;;;;;;3.40;3.10;;;;;;;23.80;40.98;95568.56;6283781;27;103229;-67
2022/09/07 07:00:37;;;;;;;4.37;2.77;;;;;;;23.93;41.31;95577.63;6285059;27;103313;-67
2022/09/07 07:03:41;;;;;;;3.37;3.03;;;;;;;24.04;41.08;95568.31;6285108;27;102979;-68
2022/09/07 07:06:44;;;;;;;3.03;2.70;;;;;;;24.07;41.33;95573.81;6285358;27;103091;-66
2022/09/07 07:09:50;;;;;;;3.87;2.80;;;;;;;24.05;40.91;95577.91;6278015;27;103668;-66
2022/09/07 07:12:55;;;;;;;2.83;2.63;;;;;;;24.02;40.24;95575.81;6287231;27;103434;-66
2022/09/07 07:16:04;;;;;;;3.30;2.57;;;;;;;23.95;40.22;95580.78;6283562;27;103000;-66
2022/09/07 07:19:08;;;;;;;2.93;2.73;;;;;;;24.09;40.78;95579.66;6288055;27;102730;-66
2022/09/07 07:22:11;;;;;;;3.13;2.57;;;;;;;24.15;39.82;95570.41;6277613;27;104418;-67
2022/09/07 07:25:35;;;;;;;3.00;2.70;;;;;;;24.05;40.04;95569.88;6270534;27;102974;-66
2022/09/07 07:28:39;;;;;;;4.43;2.63;;;;;;;24.10;40.03;95572.41;6287778;27;102676;-66
2022/09/07 07:32:03;;;;;;;4.40;3.00;;;;;;;24.13;39.61;95569.13;6277103;27;102833;-67
2022/09/07 07:35:07;;;;;;;2.47;2.27;;;;;;;24.22;39.80;95575.34;6272941;27;103827;-67
2022/09/07 07:38:10;;;;;;;2.70;2.50;;;;;;;24.29;39.56;95577.56;6285289;27;103401;-66
2022/09/07 07:41:35;;;;;;;2.90;2.70;;;;;;;24.24;39.81;95575.81;6288693;27;103112;-66
2022/09/07 07:44:58;;;;;;;3.27;3.07;;;;;;;24.15;39.58;95577.63;6273058;27;104120;-67
2022/09/07 07:48:21;;;;;;;2.97;2.77;;;;;;;24.28;39.58;95584.00;6287234;27;102983;-68
2022/09/07 07:51:27;;;;;;;2.90;2.70;;;;;;;24.37;39.37;95580.28;6288683;27;103193;-66
2022/09/07 07:54:32;;;;;;;3.33;2.97;;;;;;;24.19;39.33;95578.59;6276496;27;103143;-66
2022/09/07 07:57:37;;;;;;;3.57;2.90;;;;;;;24.26;39.61;95573.63;6286091;27;103160;-64
2022/09/07 08:00:40;;;;;;;4.53;2.60;;;;;;;24.44;39.45;95585.97;6286737;27;103086;-66
2022/09/07 08:03:57;;;;;;;2.90;2.70;;;;;;;24.44;39.34;95585.19;6282304;27;106477;-67
2022/09/07 08:07:00;;;;;;;4.67;3.10;;;;;;;24.27;39.10;95585.91;6277556;27;103377;-67
2022/09/07 08:10:11;;;;;;;5.80;2.63;;;;;;;24.17;38.66;95570.88;6287737;27;103154;-67
2022/09/07 08:13:17;;;;;;;4.73;3.00;;;;;;;24.12;38.96;95572.91;6285610;27;104275;-67
2022/09/07 08:16:21;;;;;;;5.53;3.17;;;;;;;24.09;38.99;95576.97;6283664;27;103164;-67
2022/09/07 08:19:24;;;;;;;5.00;2.63;;;;;;;24.10;39.29;95570.53;6275737;27;103399;-67
2022/09/07 08:22:27;;;;;;;3.10;2.90;;;;;;;24.13;38.84;95579.81;6285443;27;104185;-66
2022/09/07 08:25:36;;;;;;;4.90;2.90;;;;;;;24.15;38.97;95569.63;6283565;27;102986;-67
2022/09/07 08:28:44;;;;;;;3.10;2.83;;;;;;;24.26;38.80;95575.50;6279221;27;102928;-68
2022/09/07 08:31:47;;;;;;;2.90;2.60;;;;;;;24.41;38.55;95575.91;6285276;27;103430;-65
2022/09/07 08:34:50;;;;;;;3.53;3.20;;;;;;;24.54;38.61;95568.09;6281143;27;103701;-67
2022/09/07 08:37:53;;;;;;;4.73;2.70;;;;;;;24.62;38.53;95559.31;6287078;27;103048;-67
2022/09/07 08:40:57;;;;;;;3.50;2.93;;;;;;;24.68;38.57;95560.75;6277072;27;103380;-67
2022/09/07 08:44:05;;;;;;;2.37;2.27;;;;;;;24.63;38.97;95560.88;6288104;27;103144;-68
2022/09/07 08:47:21;;;;;;;3.00;2.70;;;;;;;24.71;38.42;95549.47;6289254;27;102799;-68
2022/09/07 08:50:29;;;;;;;2.90;2.70;;;;;;;24.67;38.51;95551.13;6287996;27;103471;-67
2022/09/07 08:53:32;;;;;;;3.40;3.20;;;;;;;24.75;38.38;95545.84;6277443;27;103054;-67
2022/09/07 08:56:38;;;;;;;3.17;2.87;;;;;;;24.87;38.43;95550.63;6288322;27;103090;-68
2022/09/07 09:00:07;;;;;;;3.20;2.90;;;;;;;24.87;38.38;95545.25;6288014;27;102768;-68
2022/09/07 09:03:20;;;;;;;2.70;2.50;;;;;;;24.85;38.53;95528.69;6279296;27;103901;-67
2022/09/07 09:06:47;;;;;;;2.87;2.53;;;;;;;24.76;38.56;95527.91;6287615;27;103398;-67
2022/09/07 09:10:14;;;;;;;4.30;2.90;;;;;;;24.87;38.58;95523.84;6287720;27;103103;-67
2022/09/07 09:13:19;;;;;;;3.63;2.93;;;;;;;24.93;38.47;95519.91;6287985;27;102971;-67
2022/09/07 09:16:33;;;;;;;3.53;2.97;;;;;;;24.74;39.79;95514.81;6278473;27;104384;-66
2022/09/07 09:19:51;;;;;;;5.47;3.17;;;;;;;24.86;38.65;95516.88;6287920;27;103152;-66
2022/09/07 09:23:00;;;;;;;3.30;3.10;;;;;;;25.00;38.35;95512.19;6287333;27;103031;-62
2022/09/07 09:26:10;;;;;;;4.50;3.40;;;;;;;25.09;37.76;95510.31;6277507;27;102720;-62
2022/09/07 09:29:14;;;;;;;3.83;3.27;;;;;;;25.18;37.89;95504.19;6287610;27;103165;-62
2022/09/07 09:32:38;;;;;;;5.67;3.63;;;;;;;25.22;38.05;95507.81;6287031;27;103078;-63
2022/09/07 09:35:44;;;;;;;3.63;3.30;;;;;;;25.22;38.34;95497.91;6288288;27;102996;-63
2022/09/07 09:38:47;;;;;;;3.60;3.30;;;;;;;25.28;38.09;95495.84;6276536;27;103288;-62
2022/09/07 09:41:50;;;;;;;3.33;3.13;;;;;;;25.28;38.39;95496.63;6286723;27;103266;-63
2022/09/07 09:44:54;;;;;;;3.43;3.13;;;;;;;25.29;38.55;95492.84;6287599;27;103636;-62
2022/09/07 09:48:00;;;;;;;3.77;3.10;;;;;;;25.24;38.78;95481.50;6279561;27;103144;-65
2022/09/07 09:51:06;;;;;;;3.80;3.20;;;;;;;25.25;38.60;95488.44;6286710;27;103126;-62
2022/09/07 09:54:32;;;;;;;3.50;3.20;;;;;;;25.25;38.57;95491.91;6288067;27;103767;-63
2022/09/07 09:57:51;;;;;;;3.40;3.20;;;;;;;25.27;38.71;95489.69;6287451;27;103009;-62
2022/09/07 10:01:23;;;;;;;3.50;3.20;;;;;;;25.26;39.09;95487.34;6277940;27;104171;-62
2022/09/07 10:04:33;;;;;;;3.53;3.23;;;;;;;25.24;38.74;95481.50;6288206;27;102944;-62
2022/09/07 10:07:37;;;;;;;3.57;3.27;;;;;;;25.24;39.14;95476.16;6287543;27;102989;-62
2022/09/07 10:10:50;;;;;;;3.30;3.10;;;;;;;25.25;38.94;95475.84;6279917;27;104462;-66
2022/09/07 10:13:56;;;;;;;3.83;3.53;;;;;;;25.22;38.84;95462.28;6287298;27;105105;-62
2022/09/07 10:17:01;;;;;;;3.27;2.97;;;;;;;25.24;39.28;95462.75;6287428;27;103130;-62
2022/09/07 10:20:30;;;;;;;3.60;3.30;;;;;;;25.23;39.33;95455.81;6287264;27;103180;-65
2022/09/07 10:23:34;;;;;;;3.83;3.40;;;;;;;25.20;39.62;95456.44;6276286;27;104091;-62
2022/09/07 10:26:39;;;;;;;4.03;3.73;;;;;;;25.18;39.32;95459.44;6288921;27;103057;-61
2022/09/07 10:29:42;;;;;;;3.40;3.20;;;;;;;25.20;39.61;95459.13;6291807;27;105440;-61
2022/09/07 10:32:58;;;;;;;3.60;3.30;;;;;;;25.19;39.07;95441.47;6287803;27;102895;-63
2022/09/07 10:36:10;;;;;;;3.83;2.63;;;;;;;25.16;39.59;95439.44;6285946;27;103140;-62
2022/09/07 10:39:17;;;;;;;3.63;3.33;;;;;;;25.15;39.64;95440.53;6291754;27;103029;-65
2022/09/07 10:42:27;;;;;;;3.63;3.43;;;;;;;25.15;39.71;95435.19;6291883;27;102788;-66
2022/09/07 10:45:38;;;;;;;3.90;3.60;;;;;;;25.14;39.81;95430.91;6280358;27;103159;-62
2022/09/07 10:48:52;;;;;;;3.90;3.60;;;;;;;25.11;39.98;95429.66;6291953;27;104045;-62
2022/09/07 10:52:09;;;;;;;4.30;3.47;;;;;;;25.08;40.06;95431.09;6290938;27;103174;-63
2022/09/07 10:55:19;;;;;;;3.50;3.20;;;;;;;25.08;40.00;95433.78;6291091;27;103334;-62
2022/09/07 10:58:30;;;;;;;4.00;3.60;;;;;;;25.08;39.92;95428.41;6281614;27;103178;-62
2022/09/07 11:02:01;;;;;;;4.00;3.70;;;;;;;25.09;40.20;95429.19;6291092;27;102812;-62
2022/09/07 11:05:14;;;;;;;3.90;3.60;;;;;;;25.08;40.03;95417.69;6290907;27;103180;-62
2022/09/07 11:08:33;;;;;;;4.47;4.17;;;;;;;25.05;39.86;95410.31;6280942;27;103263;-62
2022/09/07 11:12:02;;;;;;;4.03;3.73;;;;;;;25.04;40.32;95411.41;6290893;27;102811;-63
2022/09/07 11:15:18;;;;;;;4.10;3.80;;;;;;;25.03;40.18;95407.16;6291119;27;102985;-62
2022/09/07 11:18:26;;;;;;;3.93;3.63;;;;;;;25.04;40.42;95407.94;6285722;27;105980;-64
2022/09/07 11:21:38;;;;;;;4.80;4.33;;;;;;;25.00;40.41;95405.09;6285016;27;102963;-62
2022/09/07 11:25:13;;;;;;;4.37;4.07;;;;;;;24.98;40.34;95404.63;6290668;27;102716;-62
2022/09/07 11:28:44;;;;;;;4.50;4.20;;;;;;;24.98;40.54;95401.94;6289952;27;103213;-61
2022/09/07 11:31:53;;;;;;;4.53;4.03;;;;;;;24.95;40.54;95391.88;6280105;27;104786;-62
2022/09/07 11:35:01;;;;;;;4.33;4.03;;;;;;;24.93;40.61;95388.72;6289402;27;102674;-62
2022/09/07 11:38:13;;;;;;;4.27;3.97;;;;;;;24.95;40.67;95389.19;6289013;27;103168;-62
2022/09/07 11:41:23;;;;;;;4.40;4.10;;;;;;;24.94;40.48;95384.94;6283906;27;103178;-62
2022/09/07 11:44:34;;;;;;;4.47;4.07;;;;;;;24.93;40.61;95382.56;6285119;27;103189;-61
2022/09/07 11:47:42;;;;;;;4.43;4.13;;;;;;;24.92;40.67;95381.00;6290365;27;104129;-61
2022/09/07 11:50:51;;;;;;;4.43;4.13;;;;;;;24.89;40.75;95382.44;6289920;27;103434;-62
2022/09/07 11:53:57;;;;;;;3.87;3.67;;;;;;;24.86;40.69;95383.03;6279168;27;103547;-61
2022/09/07 11:57:15;;;;;;;4.60;4.30;;;;;;;24.88;40.76;95375.50;6289782;27;104152;-62
2022/09/07 12:00:21;;;;;;;4.63;4.33;;;;;;;24.85;41.16;95381.47;6289784;27;102896;-62
2022/09/07 12:03:57;;;;;;;4.40;4.10;;;;;;;24.85;40.59;95365.41;6289577;27;103028;-61
2022/09/07 12:07:24;;;;;;;4.60;4.30;;;;;;;24.87;40.75;95368.56;6279201;27;104141;-66
2022/09/07 12:10:40;;;;;;;3.93;3.63;;;;;;;24.85;40.74;95369.97;6289222;27;103244;-62
2022/09/07 12:14:07;;;;;;;4.67;4.37;;;;;;;24.83;40.63;95370.28;6288801;27;103073;-61
2022/09/07 12:17:30;;;;;;;4.60;4.30;;;;;;;24.82;40.48;95360.69;6279026;27;103028;-62
2022/09/07 12:20:40;;;;;;;4.80;4.40;;;;;;;24.82;40.51;95358.00;6289286;27;103992;-62
2022/09/07 12:23:47;;;;;;;5.30;4.80;;;;;;;24.82;40.27;95349.97;6289433;27;104069;-63
2022/09/07 12:26:51;;;;;;;4.73;4.43;;;;;;;24.84;40.32;95352.31;6282775;27;103717;-63
2022/09/07 12:30:29;;;;;;;4.70;4.40;;;;;;;24.83;40.18;95348.06;6287526;27;105908;-63
2022/09/07 12:33:36;;;;;;;4.30;4.00;;;;;;;24.82;40.17;95349.97;6288046;27;103048;-62
2022/09/07 12:36:50;;;;;;;4.83;4.43;;;;;;;24.80;40.32;95338.78;6289153;27;103110;-62
2022/09/07 12:40:26;;;;;;;4.73;4.37;;;;;;;24.82;40.35;95338.47;6277226;27;103190;-62
2022/09/07 12:44:06;;;;;;;5.37;5.07;;;;;;;24.80;40.73;95330.75;6288678;27;102883;-63
2022/09/07 12:47:30;;;;;;;5.20;4.80;;;;;;;24.81;40.81;95328.88;6289475;27;103235;-62
2022/09/07 12:50:36;;;;;;;5.53;4.87;;;;;;;24.81;40.78;95328.88;6276902;27;103653;-62
2022/09/07 12:53:52;;;;;;;4.93;4.60;;;;;;;24.82;40.60;95333.13;6289080;27;104074;-63
2022/09/07 12:57:13;;;;;;;5.37;4.97;;;;;;;24.81;41.00;95326.97;6288496;27;103048;-62
2022/09/07 13:00:45;;;;;;;5.67;5.17;;;;;;;24.80;40.88;95328.09;6284126;27;102697;-63
2022/09/07 13:04:11;;;;;;;5.00;4.70;;;;;;;24.82;40.83;95322.41;6283230;27;103103;-63
2022/09/07 13:07:55;;;;;;;5.20;4.80;;;;;;;24.82;40.98;95315.16;6285893;27;104042;-63
2022/09/07 13:11:25;;;;;;;5.80;5.40;;;;;;;24.81;41.05;95308.25;6196673;27;103034;-62
2022/09/07 13:14:29;;;;;;;5.57;5.17;;;;;;;24.82;40.89;95315.16;6277411;27;103393;-62
2022/09/07 13:17:43;;;;;;;6.00;5.60;;;;;;;24.81;41.14;95305.56;6288430;27;103164;-62
2022/09/07 13:21:24;;;;;;;5.57;5.07;;;;;;;24.82;40.98;95311.72;6287949;27;103141;-62
2022/09/07 13:24:55;;;;;;;5.80;5.40;;;;;;;24.81;41.17;95308.25;6276807;27;103039;-62
2022/09/07 13:27:59;;;;;;;5.97;5.57;;;;;;;24.81;41.09;95304.78;6287860;27;104168;-61
2022/09/07 13:31:19;;;;;;;6.00;5.60;;;;;;;24.83;41.27;95298.00;6286970;27;103011;-61
2022/09/07 13:34:40;;;;;;;5.47;5.10;;;;;;;24.83;41.13;95300.69;6284323;27;103689;-62
2022/09/07 13:37:48;;;;;;;5.73;5.33;;;;;;;24.83;41.00;95305.25;6282179;27;104125;-62
2022/09/07 13:40:57;;;;;;;6.00;5.60;;;;;;;24.82;41.19;95309.81;6286771;27;103115;-63
2022/09/07 13:44:02;;;;;;;5.80;5.40;;;;;;;24.81;41.12;95297.53;6287788;27;102815;-62
2022/09/07 13:47:20;;;;;;;5.70;5.30;;;;;;;24.82;40.90;95307.13;6276650;27;103285;-61
2022/09/07 13:50:31;;;;;;;6.40;5.90;;;;;;;24.81;40.77;95302.09;6287122;27;103327;-61
2022/09/07 13:53:55;;;;;;;5.73;5.30;;;;;;;24.82;41.04;95304.47;6287707;27;104503;-63
2022/09/07 13:57:14;;;;;;;6.50;6.00;;;;;;;24.81;41.20;95300.22;6282295;27;103086;-64
2022/09/07 14:00:18;;;;;;;6.37;5.97;;;;;;;24.81;41.21;95300.22;6281671;27;103004;-61
2022/09/07 14:03:23;;;;;;;6.57;6.07;;;;;;;24.79;41.26;95297.06;6291068;27;102993;-62
2022/09/07 14:06:32;;;;;;;6.50;6.10;;;;;;;24.80;41.14;95295.97;6291792;27;103069;-61
2022/09/07 14:09:35;;;;;;;6.53;6.00;;;;;;;24.80;41.09;95298.63;6281768;27;103389;-62
2022/09/07 14:12:47;;;;;;;6.20;5.60;;;;;;;24.79;41.00;95299.75;6292087;27;104042;-62
2022/09/07 14:15:51;;;;;;;5.83;5.43;;;;;;;24.80;41.12;95295.97;6291334;27;103253;-62
2022/09/07 14:18:54;;;;;;;6.40;5.80;;;;;;;24.79;40.69;95302.41;6291214;27;104116;-63
2022/09/07 14:22:01;;;;;;;5.97;5.57;;;;;;;24.77;40.56;95293.94;6281143;27;104178;-62
2022/09/07 14:25:08;;;;;;;5.67;5.27;;;;;;;24.75;40.69;95298.81;6290677;27;103200;-61
2022/09/07 14:28:36;;;;;;;4.90;4.53;;;;;;;24.75;40.23;95291.56;6291624;27;103534;-63
2022/09/07 14:31:39;;;;;;;4.73;4.43;;;;;;;24.76;40.26;95297.72;6280262;27;103223;-61
2022/09/07 14:34:43;;;;;;;4.60;4.30;;;;;;;24.75;40.10;95294.25;6289499;27;103214;-62
2022/09/07 14:37:48;;;;;;;4.87;4.57;;;;;;;24.75;39.94;95296.13;6289542;27;103253;-63
2022/09/07 14:40:51;;;;;;;5.03;4.63;;;;;;;24.76;40.06;95292.34;6288740;27;103096;-61
2022/09/07 14:43:58;;;;;;;4.30;4.00;;;;;;;24.76;39.68;95298.50;6278459;27;102785;-61